sensor_id;sensor_type;location;lat;lon;timestamp;P1;durP1;ratioP1;P2;durP2;ratioP2
21448;SDS011;10885;52.830;13.788;2022-08-01T04:04:08;7.05;;;5.40;;
21448;SDS011;10885;52.830;13.788;2022-08-01T04:09:10;5.40;;;4.90;;
21448;SDS011;10885;52.830;13.788;2022-08-01T04:14:14;5.82;;;5.32;;
21448;SDS011;10885;52.830;13.788;2022-08-01T04:19:17;7.78;;;5.80;;
21448;SDS011;10885;52.830;13.788;2022-08-01T04:24:19;5.53;;;5.03;;
21448;SDS011;10885;52.830;13.788;2022-08-01T04:29:25;5.90;;;5.40;;
21448;SDS011;10885;52.830;13.788;2022-08-01T04:34:30;6.07;;;5.55;;
21448;SDS011;10885;52.830;13.788;2022-08-01T04:39:35;6.18;;;5.47;;
21448;SDS011;10885;52.830;13.788;2022-08-01T04:44:52;6.45;;;5.82;;
21448;SDS011;10885;52.830;13.788;2022-08-01T04:49:54;6.72;;;5.88;;
21448;SDS011;10885;52.830;13.788;2022-08-01T04:54:58;6.63;;;5.85;;
21448;SDS011;10885;52.830;13.788;2022-08-01T05:00:00;6.03;;;5.50;;
21448;SDS011;10885;52.830;13.788;2022-08-01T05:05:04;7.82;;;6.40;;
21448;SDS011;10885;52.830;13.788;2022-08-01T05:10:10;6.47;;;5.68;;
21448;SDS011;10885;52.830;13.788;2022-08-01T05:15:12;5.82;;;5.30;;
21448;SDS011;10885;52.830;13.788;2022-08-01T05:20:16;6.45;;;5.90;;
21448;SDS011;10885;52.830;13.788;2022-08-01T05:25:18;6.78;;;6.07;;
21448;SDS011;10885;52.830;13.788;2022-08-01T05:30:41;6.95;;;5.78;;
21448;SDS011;10885;52.830;13.788;2022-08-01T05:35:43;8.65;;;6.63;;
21448;SDS011;10885;52.830;13.788;2022-08-01T05:40:50;8.60;;;7.43;;
21448;SDS011;10885;52.830;13.788;2022-08-01T05:45:52;10.18;;;7.93;;
21448;SDS011;10885;52.830;13.788;2022-08-01T05:50:54;14.35;;;9.88;;
21448;SDS011;10885;52.830;13.788;2022-08-01T05:55:59;11.10;;;9.90;;
21448;SDS011;10885;52.830;13.788;2022-08-01T06:01:03;12.95;;;10.32;;
21448;SDS011;10885;52.830;13.788;2022-08-01T06:06:05;15.48;;;10.35;;
21448;SDS011;10885;52.830;13.788;2022-08-01T06:11:08;12.63;;;8.90;;
21448;SDS011;10885;52.830;13.788;2022-08-01T06:16:14;10.00;;;8.65;;
21448;SDS011;10885;52.830;13.788;2022-08-01T06:21:17;9.57;;;8.65;;
21448;SDS011;10885;52.830;13.788;2022-08-01T06:26:19;10.43;;;9.27;;
21448;SDS011;10885;52.830;13.788;2022-08-01T06:31:22;10.52;;;9.23;;
21448;SDS011;10885;52.830;13.788;2022-08-01T06:36:24;8.95;;;7.95;;
21448;SDS011;10885;52.830;13.788;2022-08-01T06:41:27;9.57;;;8.57;;
21448;SDS011;10885;52.830;13.788;2022-08-01T06:46:29;8.35;;;7.45;;
21448;SDS011;10885;52.830;13.788;2022-08-01T06:51:35;8.63;;;7.70;;
21448;SDS011;10885;52.830;13.788;2022-08-01T06:56:38;9.85;;;7.57;;
21448;SDS011;10885;52.830;13.788;2022-08-01T07:01:40;8.63;;;7.22;;
21448;SDS011;10885;52.830;13.788;2022-08-01T07:06:42;13.27;;;6.32;;
21448;SDS011;10885;52.830;13.788;2022-08-01T07:11:45;6.35;;;5.65;;
21448;SDS011;10885;52.830;13.788;2022-08-01T07:16:47;8.38;;;5.65;;
21448;SDS011;10885;52.830;13.788;2022-08-01T07:21:50;5.03;;;4.57;;
21448;SDS011;10885;52.830;13.788;2022-08-01T07:26:53;8.95;;;4.55;;
21448;SDS011;10885;52.830;13.788;2022-08-01T07:31:57;4.60;;;4.20;;
21448;SDS011;10885;52.830;13.788;2022-08-01T07:37:00;6.65;;;4.72;;
21448;SDS011;10885;52.830;13.788;2022-08-01T07:42:02;4.60;;;4.00;;
21448;SDS011;10885;52.830;13.788;2022-08-01T07:47:08;4.35;;;3.92;;
21448;SDS011;10885;52.830;13.788;2022-08-01T07:52:11;4.85;;;3.70;;
21448;SDS011;10885;52.830;13.788;2022-08-01T07:57:13;5.07;;;4.07;;
21448;SDS011;10885;52.830;13.788;2022-08-01T08:02:15;4.78;;;3.70;;
21448;SDS011;10885;52.830;13.788;2022-08-01T08:07:18;5.78;;;3.58;;
21448;SDS011;10885;52.830;13.788;2022-08-01T08:12:20;4.25;;;3.85;;
21448;SDS011;10885;52.830;13.788;2022-08-01T08:17:31;4.15;;;3.85;;
21448;SDS011;10885;52.830;13.788;2022-08-01T08:22:37;7.00;;;3.28;;
21448;SDS011;10885;52.830;13.788;2022-08-01T08:27:39;3.95;;;3.20;;
21448;SDS011;10885;52.830;13.788;2022-08-01T08:32:42;6.35;;;3.60;;
21448;SDS011;10885;52.830;13.788;2022-08-01T08:37:44;3.47;;;3.17;;
21448;SDS011;10885;52.830;13.788;2022-08-01T08:42:49;3.60;;;3.30;;
21448;SDS011;10885;52.830;13.788;2022-08-01T08:47:55;4.50;;;3.15;;
21448;SDS011;10885;52.830;13.788;2022-08-01T08:52:59;3.17;;;2.92;;
21448;SDS011;10885;52.830;13.788;2022-08-01T08:58:07;3.53;;;3.22;;
21448;SDS011;10885;52.830;13.788;2022-08-01T09:03:14;3.65;;;2.65;;
21448;SDS011;10885;52.830;13.788;2022-08-01T09:08:17;2.42;;;2.33;;
21448;SDS011;10885;52.830;13.788;2022-08-01T09:13:19;2.70;;;2.10;;
21448;SDS011;10885;52.830;13.788;2022-08-01T09:18:25;2.53;;;2.28;;
21448;SDS011;10885;52.830;13.788;2022-08-01T09:23:34;2.33;;;1.97;;
21448;SDS011;10885;52.830;13.788;2022-08-01T09:28:54;2.15;;;1.98;;
21448;SDS011;10885;52.830;13.788;2022-08-01T09:33:58;2.85;;;2.00;;
21448;SDS011;10885;52.830;13.788;2022-08-01T09:39:11;7.90;;;2.50;;
21448;SDS011;10885;52.830;13.788;2022-08-01T09:44:16;2.13;;;1.80;;
21448;SDS011;10885;52.830;13.788;2022-08-01T09:49:40;3.17;;;2.17;;
21448;SDS011;10885;52.830;13.788;2022-08-01T09:55:03;2.67;;;2.33;;
21448;SDS011;10885;52.830;13.788;2022-08-01T10:00:16;3.42;;;2.30;;
21448;SDS011;10885;52.830;13.788;2022-08-01T10:05:40;3.60;;;2.15;;
21448;SDS011;10885;52.830;13.788;2022-08-01T10:16:13;2.38;;;2.15;;
21448;SDS011;10885;52.830;13.788;2022-08-01T10:21:16;2.28;;;1.90;;
21448;SDS011;10885;52.830;13.788;2022-08-01T10:26:40;2.33;;;2.13;;
21448;SDS011;10885;52.830;13.788;2022-08-01T10:31:46;4.30;;;2.15;;
21448;SDS011;10885;52.830;13.788;2022-08-01T10:36:51;5.55;;;2.95;;
21448;SDS011;10885;52.830;13.788;2022-08-01T10:41:54;3.03;;;2.72;;
21448;SDS011;10885;52.830;13.788;2022-08-01T10:47:01;2.83;;;2.38;;
21448;SDS011;10885;52.830;13.788;2022-08-01T10:52:17;4.65;;;2.40;;
21448;SDS011;10885;52.830;13.788;2022-08-01T10:57:20;2.50;;;2.30;;
21448;SDS011;10885;52.830;13.788;2022-08-01T11:02:28;4.35;;;2.55;;
21448;SDS011;10885;52.830;13.788;2022-08-01T11:12:47;2.55;;;2.35;;
21448;SDS011;10885;52.830;13.788;2022-08-01T11:17:51;2.92;;;1.95;;
21448;SDS011;10885;52.830;13.788;2022-08-01T11:38:47;2.10;;;2.00;;
21448;SDS011;10885;52.830;13.788;2022-08-01T11:44:16;2.10;;;1.90;;
21448;SDS011;10885;52.830;13.788;2022-08-01T11:54:41;4.45;;;2.15;;
21448;SDS011;10885;52.830;13.788;2022-08-01T11:59:45;5.05;;;2.17;;
21448;SDS011;10885;52.830;13.788;2022-08-01T12:05:14;1.93;;;1.83;;
21448;SDS011;10885;52.830;13.788;2022-08-01T12:10:29;3.80;;;1.98;;
21448;SDS011;10885;52.830;13.788;2022-08-01T12:15:50;1.05;;;1.05;;
21448;SDS011;10885;52.830;13.788;2022-08-01T12:21:02;1.20;;;1.20;;
21448;SDS011;10885;52.830;13.788;2022-08-01T12:26:06;2.17;;;1.27;;
21448;SDS011;10885;52.830;13.788;2022-08-01T12:31:08;3.03;;;1.30;;
21448;SDS011;10885;52.830;13.788;2022-08-01T12:36:13;3.78;;;1.27;;
21448;SDS011;10885;52.830;13.788;2022-08-01T12:41:29;3.17;;;1.10;;
21448;SDS011;10885;52.830;13.788;2022-08-01T12:46:31;2.38;;;1.20;;
21448;SDS011;10885;52.830;13.788;2022-08-01T12:51:34;1.10;;;1.10;;
21448;SDS011;10885;52.830;13.788;2022-08-01T12:56:37;3.35;;;1.20;;
21448;SDS011;10885;52.830;13.788;2022-08-01T13:01:40;1.23;;;1.00;;
21448;SDS011;10885;52.830;13.788;2022-08-01T13:06:44;2.53;;;1.25;;
21448;SDS011;10885;52.830;13.788;2022-08-01T13:11:46;3.45;;;1.70;;
21448;SDS011;10885;52.830;13.788;2022-08-01T13:17:05;1.30;;;1.20;;
21448;SDS011;10885;52.830;13.788;2022-08-01T13:22:09;2.72;;;1.10;;
21448;SDS011;10885;52.830;13.788;2022-08-01T13:27:19;1.33;;;1.23;;
21448;SDS011;10885;52.830;13.788;2022-08-01T13:32:25;1.75;;;1.40;;
21448;SDS011;10885;52.830;13.788;2022-08-01T13:37:33;2.35;;;1.58;;
21448;SDS011;10885;52.830;13.788;2022-08-01T13:42:38;1.38;;;1.27;;
21448;SDS011;10885;52.830;13.788;2022-08-01T13:47:43;4.05;;;2.00;;
21448;SDS011;10885;52.830;13.788;2022-08-01T13:53:06;4.18;;;1.77;;
21448;SDS011;10885;52.830;13.788;2022-08-01T13:58:08;1.40;;;1.30;;
21448;SDS011;10885;52.830;13.788;2022-08-01T14:03:10;2.67;;;1.52;;
21448;SDS011;10885;52.830;13.788;2022-08-01T14:08:12;2.90;;;1.70;;
21448;SDS011;10885;52.830;13.788;2022-08-01T14:13:15;6.03;;;2.30;;
21448;SDS011;10885;52.830;13.788;2022-08-01T14:18:17;6.20;;;2.42;;
21448;SDS011;10885;52.830;13.788;2022-08-01T14:23:20;2.40;;;1.80;;
21448;SDS011;10885;52.830;13.788;2022-08-01T14:28:23;2.92;;;2.08;;
21448;SDS011;10885;52.830;13.788;2022-08-01T14:33:26;2.08;;;1.70;;
21448;SDS011;10885;52.830;13.788;2022-08-01T14:38:29;2.42;;;1.30;;
21448;SDS011;10885;52.830;13.788;2022-08-01T14:43:35;1.20;;;1.20;;
21448;SDS011;10885;52.830;13.788;2022-08-01T14:48:37;1.35;;;1.25;;
21448;SDS011;10885;52.830;13.788;2022-08-01T14:53:39;3.38;;;1.40;;
21448;SDS011;10885;52.830;13.788;2022-08-01T14:58:51;3.05;;;1.10;;
21448;SDS011;10885;52.830;13.788;2022-08-01T15:03:53;1.38;;;1.10;;
21448;SDS011;10885;52.830;13.788;2022-08-01T15:08:57;1.20;;;1.10;;
21448;SDS011;10885;52.830;13.788;2022-08-01T15:13:59;2.53;;;1.20;;
21448;SDS011;10885;52.830;13.788;2022-08-01T15:19:21;3.00;;;1.23;;
21448;SDS011;10885;52.830;13.788;2022-08-01T15:24:23;0.90;;;0.90;;
21448;SDS011;10885;52.830;13.788;2022-08-01T15:29:25;3.40;;;1.17;;
21448;SDS011;10885;52.830;13.788;2022-08-01T15:34:28;1.85;;;1.40;;
21448;SDS011;10885;52.830;13.788;2022-08-01T15:39:31;0.70;;;0.70;;
21448;SDS011;10885;52.830;13.788;2022-08-01T15:44:35;2.35;;;0.73;;
21448;SDS011;10885;52.830;13.788;2022-08-01T15:49:38;4.30;;;0.70;;
21448;SDS011;10885;52.830;13.788;2022-08-01T15:54:40;4.60;;;1.00;;
21448;SDS011;10885;52.830;13.788;2022-08-01T15:59:44;0.70;;;0.70;;
21448;SDS011;10885;52.830;13.788;2022-08-01T16:04:46;2.22;;;0.80;;
21448;SDS011;10885;52.830;13.788;2022-08-01T16:09:48;1.52;;;0.70;;
21448;SDS011;10885;52.830;13.788;2022-08-01T16:14:51;2.05;;;0.82;;
21448;SDS011;10885;52.830;13.788;2022-08-01T16:19:53;0.90;;;0.90;;
21448;SDS011;10885;52.830;13.788;2022-08-01T16:24:55;3.70;;;1.00;;
21448;SDS011;10885;52.830;13.788;2022-08-01T16:30:02;3.78;;;1.10;;
21448;SDS011;10885;52.830;13.788;2022-08-01T16:35:04;1.70;;;0.90;;
21448;SDS011;10885;52.830;13.788;2022-08-01T16:40:07;5.05;;;0.98;;
21448;SDS011;10885;52.830;13.788;2022-08-01T16:45:11;1.13;;;0.80;;
21448;SDS011;10885;52.830;13.788;2022-08-01T16:50:15;1.92;;;0.95;;
21448;SDS011;10885;52.830;13.788;2022-08-01T16:55:18;2.28;;;1.00;;
21448;SDS011;10885;52.830;13.788;2022-08-01T17:00:23;1.63;;;0.90;;
21448;SDS011;10885;52.830;13.788;2022-08-01T17:05:28;4.95;;;1.10;;
21448;SDS011;10885;52.830;13.788;2022-08-01T17:10:32;6.72;;;1.30;;
21448;SDS011;10885;52.830;13.788;2022-08-01T17:15:35;3.30;;;1.30;;
21448;SDS011;10885;52.830;13.788;2022-08-01T17:20:37;2.22;;;1.20;;
21448;SDS011;10885;52.830;13.788;2022-08-01T17:25:49;2.10;;;1.08;;
21448;SDS011;10885;52.830;13.788;2022-08-01T17:30:51;2.22;;;1.27;;
21448;SDS011;10885;52.830;13.788;2022-08-01T17:35:53;4.90;;;1.25;;
21448;SDS011;10885;52.830;13.788;2022-08-01T17:40:56;4.70;;;1.40;;
21448;SDS011;10885;52.830;13.788;2022-08-01T17:45:58;2.72;;;1.35;;
21448;SDS011;10885;52.830;13.788;2022-08-01T17:51:01;2.63;;;1.20;;
21448;SDS011;10885;52.830;13.788;2022-08-01T17:56:03;3.78;;;1.30;;
21448;SDS011;10885;52.830;13.788;2022-08-01T18:01:08;2.55;;;1.10;;
21448;SDS011;10885;52.830;13.788;2022-08-01T18:06:11;1.13;;;0.98;;
21448;SDS011;10885;52.830;13.788;2022-08-01T18:11:16;2.35;;;1.38;;
21448;SDS011;10885;52.830;13.788;2022-08-01T18:16:22;3.80;;;1.75;;
21448;SDS011;10885;52.830;13.788;2022-08-01T18:21:24;2.65;;;1.42;;
21448;SDS011;10885;52.830;13.788;2022-08-01T18:26:26;5.10;;;1.52;;
21448;SDS011;10885;52.830;13.788;2022-08-01T18:31:29;1.63;;;1.30;;
21448;SDS011;10885;52.830;13.788;2022-08-01T18:36:31;2.83;;;1.60;;
21448;SDS011;10885;52.830;13.788;2022-08-01T18:41:35;2.55;;;1.50;;
21448;SDS011;10885;52.830;13.788;2022-08-01T18:46:39;2.92;;;1.80;;
21448;SDS011;10885;52.830;13.788;2022-08-01T18:51:41;3.55;;;1.85;;
21448;SDS011;10885;52.830;13.788;2022-08-01T18:56:46;3.83;;;1.73;;
21448;SDS011;10885;52.830;13.788;2022-08-01T19:01:48;3.20;;;1.88;;
21448;SDS011;10885;52.830;13.788;2022-08-01T19:06:51;2.42;;;1.70;;
21448;SDS011;10885;52.830;13.788;2022-08-01T19:11:53;5.00;;;1.67;;
21448;SDS011;10885;52.830;13.788;2022-08-01T19:16:55;4.13;;;2.17;;
21448;SDS011;10885;52.830;13.788;2022-08-01T19:21:58;4.20;;;2.25;;
21448;SDS011;10885;52.830;13.788;2022-08-01T19:27:03;6.28;;;1.92;;
21448;SDS011;10885;52.830;13.788;2022-08-01T19:32:10;3.78;;;1.88;;
21448;SDS011;10885;52.830;13.788;2022-08-01T19:37:13;3.78;;;2.13;;
21448;SDS011;10885;52.830;13.788;2022-08-01T19:42:16;3.28;;;2.10;;
21448;SDS011;10885;52.830;13.788;2022-08-01T19:47:21;3.30;;;2.20;;
21448;SDS011;10885;52.830;13.788;2022-08-01T19:52:24;5.32;;;2.45;;
21448;SDS011;10885;52.830;13.788;2022-08-01T19:57:27;7.80;;;2.35;;
21448;SDS011;10885;52.830;13.788;2022-08-01T20:02:46;4.47;;;2.20;;
21448;SDS011;10885;52.830;13.788;2022-08-01T20:07:52;4.47;;;2.17;;
21448;SDS011;10885;52.830;13.788;2022-08-01T20:12:55;6.05;;;2.70;;
21448;SDS011;10885;52.830;13.788;2022-08-01T20:17:58;3.95;;;2.20;;
21448;SDS011;10885;52.830;13.788;2022-08-01T20:23:01;3.28;;;2.00;;
21448;SDS011;10885;52.830;13.788;2022-08-01T20:28:06;3.38;;;2.28;;
21448;SDS011;10885;52.830;13.788;2022-08-01T20:33:11;4.53;;;2.60;;
21448;SDS011;10885;52.830;13.788;2022-08-01T20:38:14;4.55;;;2.85;;
21448;SDS011;10885;52.830;13.788;2022-08-01T20:43:19;6.60;;;2.90;;
21448;SDS011;10885;52.830;13.788;2022-08-01T20:48:26;4.10;;;2.50;;
21448;SDS011;10885;52.830;13.788;2022-08-01T20:53:30;4.72;;;2.70;;
21448;SDS011;10885;52.830;13.788;2022-08-01T20:58:38;4.97;;;2.17;;
21448;SDS011;10885;52.830;13.788;2022-08-01T21:09:09;5.00;;;2.72;;
21448;SDS011;10885;52.830;13.788;2022-08-01T21:14:18;5.30;;;2.65;;
21448;SDS011;10885;52.830;13.788;2022-08-01T21:19:25;7.18;;;2.47;;
21448;SDS011;10885;52.830;13.788;2022-08-01T21:24:32;5.93;;;2.63;;
21448;SDS011;10885;52.830;13.788;2022-08-01T21:29:43;4.82;;;2.38;;
21448;SDS011;10885;52.830;13.788;2022-08-01T21:34:49;6.10;;;2.90;;
21448;SDS011;10885;52.830;13.788;2022-08-01T21:39:52;5.55;;;3.03;;
21448;SDS011;10885;52.830;13.788;2022-08-01T21:44:58;6.28;;;3.17;;
